sensor_id;sensor_type;location;lat;lon;timestamp;pressure;altitude;pressure_sealevel;temperature;humidity
68107;BME280;54892;47.488;19.026;2023-05-02T00:00:55;100084.47;;;13.04;54.31
68107;BME280;54892;47.488;19.026;2023-05-02T00:03:59;100087.87;;;13.15;54.40
68107;BME280;54892;47.488;19.026;2023-05-02T00:07:02;100079.09;;;13.24;54.27
68107;BME280;54892;47.488;19.026;2023-05-02T00:10:07;100087.31;;;13.23;54.14
68107;BME280;54892;47.488;19.026;2023-05-02T00:13:10;100079.91;;;13.25;54.07
68107;BME280;54892;47.488;19.026;2023-05-02T00:16:13;100082.78;;;13.34;53.62
68107;BME280;54892;47.488;19.026;2023-05-02T00:19:16;100080.91;;;13.39;53.85
68107;BME280;54892;47.488;19.026;2023-05-02T00:22:19;100077.72;;;13.32;53.56
68107;BME280;54892;47.488;19.026;2023-05-02T00:25:23;100086.47;;;13.43;53.71
68107;BME280;54892;47.488;19.026;2023-05-02T00:28:27;100075.94;;;13.22;54.17
68107;BME280;54892;47.488;19.026;2023-05-02T00:31:29;100087.53;;;13.47;52.76
68107;BME280;54892;47.488;19.026;2023-05-02T00:34:33;100084.16;;;13.21;53.45
68107;BME280;54892;47.488;19.026;2023-05-02T00:37:36;100075.66;;;13.24;53.56
68107;BME280;54892;47.488;19.026;2023-05-02T00:40:44;100078.03;;;13.31;53.60
68107;BME280;54892;47.488;19.026;2023-05-02T00:43:48;100073.28;;;13.22;53.85
68107;BME280;54892;47.488;19.026;2023-05-02T00:46:51;100085.19;;;13.25;53.35
68107;BME280;54892;47.488;19.026;2023-05-02T00:49:54;100083.59;;;13.24;53.26
68107;BME280;54892;47.488;19.026;2023-05-02T00:52:58;100084.13;;;13.31;53.41
68107;BME280;54892;47.488;19.026;2023-05-02T00:56:03;100073.78;;;13.30;53.49
68107;BME280;54892;47.488;19.026;2023-05-02T00:59:07;100079.09;;;13.24;52.43
68107;BME280;54892;47.488;19.026;2023-05-02T01:02:16;100089.69;;;13.30;53.01
68107;BME280;54892;47.488;19.026;2023-05-02T01:05:24;100089.44;;;13.31;52.79
68107;BME280;54892;47.488;19.026;2023-05-02T01:08:33;100083.31;;;13.36;52.94
68107;BME280;54892;47.488;19.026;2023-05-02T01:11:42;100084.37;;;13.24;53.29
68107;BME280;54892;47.488;19.026;2023-05-02T01:14:47;100084.94;;;13.21;53.37
68107;BME280;54892;47.488;19.026;2023-05-02T01:17:52;100086.78;;;13.26;53.51
68107;BME280;54892;47.488;19.026;2023-05-02T01:20:57;100081.72;;;13.30;53.56
68107;BME280;54892;47.488;19.026;2023-05-02T01:24:04;100079.66;;;13.21;54.44
68107;BME280;54892;47.488;19.026;2023-05-02T01:27:14;100088.66;;;13.20;54.15
68107;BME280;54892;47.488;19.026;2023-05-02T01:30:20;100082.25;;;13.27;54.06
68107;BME280;54892;47.488;19.026;2023-05-02T01:33:23;100079.66;;;13.11;54.82
68107;BME280;54892;47.488;19.026;2023-05-02T01:36:29;100078.06;;;13.10;54.82
68107;BME280;54892;47.488;19.026;2023-05-02T01:39:33;100073.28;;;13.17;55.04
68107;BME280;54892;47.488;19.026;2023-05-02T01:42:37;100075.69;;;13.14;55.67
68107;BME280;54892;47.488;19.026;2023-05-02T01:45:43;100073.38;;;12.91;56.84
68107;BME280;54892;47.488;19.026;2023-05-02T01:48:47;100068.91;;;12.76;56.91
68107;BME280;54892;47.488;19.026;2023-05-02T01:51:52;100065.47;;;12.76;57.22
68107;BME280;54892;47.488;19.026;2023-05-02T01:54:55;100069.16;;;12.80;57.07
68107;BME280;54892;47.488;19.026;2023-05-02T01:57:59;100060.16;;;12.66;57.73
68107;BME280;54892;47.488;19.026;2023-05-02T02:01:04;100064.16;;;12.68;57.50
68107;BME280;54892;47.488;19.026;2023-05-02T02:04:08;100068.91;;;12.56;58.28
68107;BME280;54892;47.488;19.026;2023-05-02T02:07:12;100055.94;;;12.59;58.23
68107;BME280;54892;47.488;19.026;2023-05-02T02:10:15;100051.44;;;12.65;57.99
68107;BME280;54892;47.488;19.026;2023-05-02T02:13:18;100055.41;;;12.57;58.13
68107;BME280;54892;47.488;19.026;2023-05-02T02:16:28;100055.66;;;12.56;58.68
68107;BME280;54892;47.488;19.026;2023-05-02T02:19:32;100049.59;;;12.55;58.75
68107;BME280;54892;47.488;19.026;2023-05-02T02:22:36;100051.44;;;12.44;58.69
68107;BME280;54892;47.488;19.026;2023-05-02T02:25:40;100048.81;;;12.39;58.69
68107;BME280;54892;47.488;19.026;2023-05-02T02:28:44;100048.53;;;12.36;58.83
68107;BME280;54892;47.488;19.026;2023-05-02T02:31:48;100057.56;;;12.40;59.38
68107;BME280;54892;47.488;19.026;2023-05-02T02:34:51;100048.03;;;12.39;58.94
68107;BME280;54892;47.488;19.026;2023-05-02T02:37:57;100051.97;;;12.41;59.04
68107;BME280;54892;47.488;19.026;2023-05-02T02:41:05;100048.03;;;12.39;59.23
68107;BME280;54892;47.488;19.026;2023-05-02T02:44:15;100047.22;;;12.28;59.53
68107;BME280;54892;47.488;19.026;2023-05-02T02:47:26;100052.25;;;12.09;60.02
68107;BME280;54892;47.488;19.026;2023-05-02T02:50:31;100051.72;;;12.07;60.13
68107;BME280;54892;47.488;19.026;2023-05-02T02:53:38;100056.22;;;12.06;60.05
68107;BME280;54892;47.488;19.026;2023-05-02T02:56:46;100045.62;;;12.01;59.72
68107;BME280;54892;47.488;19.026;2023-05-02T02:59:53;100049.88;;;12.02;59.68
68107;BME280;54892;47.488;19.026;2023-05-02T03:03:01;100055.66;;;11.88;60.03
68107;BME280;54892;47.488;19.026;2023-05-02T03:06:04;100045.84;;;11.94;60.12
68107;BME280;54892;47.488;19.026;2023-05-02T03:09:13;100057.53;;;12.09;59.80
68107;BME280;54892;47.488;19.026;2023-05-02T03:12:17;100060.38;;;11.92;60.17
68107;BME280;54892;47.488;19.026;2023-05-02T03:15:23;100051.13;;;11.89;60.03
68107;BME280;54892;47.488;19.026;2023-05-02T03:18:31;100055.34;;;11.80;60.25
68107;BME280;54892;47.488;19.026;2023-05-02T03:21:35;100063.84;;;11.92;60.29
68107;BME280;54892;47.488;19.026;2023-05-02T03:24:38;100073.56;;;11.76;60.61
68107;BME280;54892;47.488;19.026;2023-05-02T03:27:42;100064.31;;;11.73;60.90
68107;BME280;54892;47.488;19.026;2023-05-02T03:30:45;100062.72;;;11.72;60.54
68107;BME280;54892;47.488;19.026;2023-05-02T03:33:49;100063.53;;;11.73;60.23
68107;BME280;54892;47.488;19.026;2023-05-02T03:36:53;100061.19;;;11.82;60.17
68107;BME280;54892;47.488;19.026;2023-05-02T03:39:56;100062.78;;;11.83;60.43
68107;BME280;54892;47.488;19.026;2023-05-02T03:42:59;100065.69;;;11.86;60.26
68107;BME280;54892;47.488;19.026;2023-05-02T03:46:06;100068.28;;;11.76;60.86
68107;BME280;54892;47.488;19.026;2023-05-02T03:49:11;100071.22;;;11.85;60.46
68107;BME280;54892;47.488;19.026;2023-05-02T03:52:14;100078.13;;;11.91;60.66
68107;BME280;54892;47.488;19.026;2023-05-02T03:55:17;100077.09;;;12.02;60.28
68107;BME280;54892;47.488;19.026;2023-05-02T03:58:20;100081.06;;;12.00;60.03
68107;BME280;54892;47.488;19.026;2023-05-02T04:01:24;100085.53;;;11.94;59.90
68107;BME280;54892;47.488;19.026;2023-05-02T04:04:28;100083.72;;;12.00;59.72
68107;BME280;54892;47.488;19.026;2023-05-02T04:07:32;100089.03;;;12.05;60.49
68107;BME280;54892;47.488;19.026;2023-05-02T04:10:35;100083.38;;;11.86;60.71
68107;BME280;54892;47.488;19.026;2023-05-02T04:13:38;100091.94;;;11.98;60.59
68107;BME280;54892;47.488;19.026;2023-05-02T04:16:41;100088.97;;;11.90;60.31
68107;BME280;54892;47.488;19.026;2023-05-02T04:19:46;100093.50;;;12.05;60.68
68107;BME280;54892;47.488;19.026;2023-05-02T04:22:49;100084.00;;;12.14;61.05
68107;BME280;54892;47.488;19.026;2023-05-02T04:25:52;100100.16;;;12.28;60.68
68107;BME280;54892;47.488;19.026;2023-05-02T04:28:55;100100.41;;;12.16;60.71
68107;BME280;54892;47.488;19.026;2023-05-02T04:31:58;100100.94;;;12.18;59.88
68107;BME280;54892;47.488;19.026;2023-05-02T04:35:03;100095.13;;;12.31;59.25
68107;BME280;54892;47.488;19.026;2023-05-02T04:38:09;100101.47;;;12.67;57.70
68107;BME280;54892;47.488;19.026;2023-05-02T04:41:13;100104.41;;;12.44;57.25
68107;BME280;54892;47.488;19.026;2023-05-02T04:44:17;100118.44;;;12.60;56.96
68107;BME280;54892;47.488;19.026;2023-05-02T04:47:20;100112.59;;;12.74;57.12
68107;BME280;54892;47.488;19.026;2023-05-02T04:50:24;100106.97;;;13.06;56.01
68107;BME280;54892;47.488;19.026;2023-05-02T04:53:28;100112.47;;;13.31;53.24
68107;BME280;54892;47.488;19.026;2023-05-02T04:56:32;100110.28;;;13.59;52.98
68107;BME280;54892;47.488;19.026;2023-05-02T04:59:35;100111.84;;;13.65;52.59
68107;BME280;54892;47.488;19.026;2023-05-02T05:02:39;100111.94;;;13.94;52.07
68107;BME280;54892;47.488;19.026;2023-05-02T05:05:43;100116.38;;;14.09;52.13
68107;BME280;54892;47.488;19.026;2023-05-02T05:08:46;100120.50;;;14.31;51.95
68107;BME280;54892;47.488;19.026;2023-05-02T05:11:49;100119.44;;;14.61;51.02
68107;BME280;54892;47.488;19.026;2023-05-02T05:14:52;100122.59;;;14.69;51.23
68107;BME280;54892;47.488;19.026;2023-05-02T05:17:55;100123.91;;;14.71;51.20
68107;BME280;54892;47.488;19.026;2023-05-02T05:21:00;100129.69;;;14.79;51.15
68107;BME280;54892;47.488;19.026;2023-05-02T05:24:03;100129.22;;;14.71;51.03
68107;BME280;54892;47.488;19.026;2023-05-02T05:27:06;100122.03;;;14.72;51.24
68107;BME280;54892;47.488;19.026;2023-05-02T05:30:10;100131.44;;;14.88;51.14
68107;BME280;54892;47.488;19.026;2023-05-02T05:33:13;100131.78;;;14.82;51.30
68107;BME280;54892;47.488;19.026;2023-05-02T05:36:18;100132.88;;;15.05;51.88
68107;BME280;54892;47.488;19.026;2023-05-02T05:39:23;100142.34;;;15.16;51.41
68107;BME280;54892;47.488;19.026;2023-05-02T05:42:26;100139.91;;;15.20;50.95
68107;BME280;54892;47.488;19.026;2023-05-02T05:45:29;100139.41;;;15.18;52.50
68107;BME280;54892;47.488;19.026;2023-05-02T05:48:32;100136.09;;;15.26;51.31
68107;BME280;54892;47.488;19.026;2023-05-02T05:51:36;100142.41;;;15.35;50.85
68107;BME280;54892;47.488;19.026;2023-05-02T05:54:39;100138.53;;;15.47;49.66
68107;BME280;54892;47.488;19.026;2023-05-02T05:57:42;100147.19;;;15.58;49.93
68107;BME280;54892;47.488;19.026;2023-05-02T06:00:45;100145.84;;;15.60;49.69
68107;BME280;54892;47.488;19.026;2023-05-02T06:03:48;100149.50;;;15.89;51.78
68107;BME280;54892;47.488;19.026;2023-05-02T06:06:52;100156.00;;;16.02;51.16
68107;BME280;54892;47.488;19.026;2023-05-02T06:09:56;100156.34;;;15.95;52.17
68107;BME280;54892;47.488;19.026;2023-05-02T06:12:59;100152.87;;;16.13;50.87
68107;BME280;54892;47.488;19.026;2023-05-02T06:16:02;100147.56;;;16.33;49.24
68107;BME280;54892;47.488;19.026;2023-05-02T06:19:06;100153.72;;;16.47;50.12
68107;BME280;54892;47.488;19.026;2023-05-02T06:22:11;100162.63;;;16.56;49.83
68107;BME280;54892;47.488;19.026;2023-05-02T06:25:15;100159.56;;;16.49;49.42
68107;BME280;54892;47.488;19.026;2023-05-02T06:28:17;100152.94;;;16.47;49.23
68107;BME280;54892;47.488;19.026;2023-05-02T06:31:20;100152.97;;;16.61;50.68
68107;BME280;54892;47.488;19.026;2023-05-02T06:34:24;100153.06;;;16.55;48.85
68107;BME280;54892;47.488;19.026;2023-05-02T06:37:28;100152.28;;;16.55;48.67
68107;BME280;54892;47.488;19.026;2023-05-02T06:40:34;100153.50;;;16.63;48.95
68107;BME280;54892;47.488;19.026;2023-05-02T06:43:38;100154.38;;;16.72;48.66
68107;BME280;54892;47.488;19.026;2023-05-02T06:46:41;100169.88;;;17.03;49.49
68107;BME280;54892;47.488;19.026;2023-05-02T06:49:43;100158.34;;;17.08;48.05
68107;BME280;54892;47.488;19.026;2023-05-02T06:52:48;100156.78;;;16.87;48.04
68107;BME280;54892;47.488;19.026;2023-05-02T06:55:51;100158.34;;;17.22;48.58
68107;BME280;54892;47.488;19.026;2023-05-02T06:58:54;100157.66;;;17.16;47.65
68107;BME280;54892;47.488;19.026;2023-05-02T07:01:57;100156.56;;;17.31;47.76
68107;BME280;54892;47.488;19.026;2023-05-02T07:05:02;100154.59;;;17.64;46.66
68107;BME280;54892;47.488;19.026;2023-05-02T07:08:06;100163.09;;;17.67;45.98
68107;BME280;54892;47.488;19.026;2023-05-02T07:11:09;100156.91;;;18.08;44.88
68107;BME280;54892;47.488;19.026;2023-05-02T07:14:12;100162.41;;;19.43;43.88
68107;BME280;54892;47.488;19.026;2023-05-02T07:17:15;100159.75;;;20.92;39.88
68107;BME280;54892;47.488;19.026;2023-05-02T07:20:18;100157.62;;;22.51;36.41
68107;BME280;54892;47.488;19.026;2023-05-02T07:23:23;100158.97;;;23.04;36.52
68107;BME280;54892;47.488;19.026;2023-05-02T07:26:26;100152.03;;;23.27;35.25
68107;BME280;54892;47.488;19.026;2023-05-02T07:29:29;100160.94;;;23.81;33.25
68107;BME280;54892;47.488;19.026;2023-05-02T07:32:32;100159.84;;;24.39;32.64
68107;BME280;54892;47.488;19.026;2023-05-02T07:35:36;100160.06;;;25.43;31.34
68107;BME280;54892;47.488;19.026;2023-05-02T07:38:40;100161.47;;;25.72;30.71
68107;BME280;54892;47.488;19.026;2023-05-02T07:41:42;100168.66;;;26.04;29.33
68107;BME280;54892;47.488;19.026;2023-05-02T07:44:45;100173.06;;;25.73;30.48
68107;BME280;54892;47.488;19.026;2023-05-02T07:47:48;100163.88;;;26.13;30.05
68107;BME280;54892;47.488;19.026;2023-05-02T07:50:51;100168.53;;;25.77;30.62
68107;BME280;54892;47.488;19.026;2023-05-02T07:53:55;100174.44;;;25.47;30.83
68107;BME280;54892;47.488;19.026;2023-05-02T07:56:59;100172.94;;;25.85;30.19
68107;BME280;54892;47.488;19.026;2023-05-02T08:00:04;100178.00;;;26.26;29.21
68107;BME280;54892;47.488;19.026;2023-05-02T08:03:10;100178.28;;;26.40;29.32
68107;BME280;54892;47.488;19.026;2023-05-02T08:06:13;100174.09;;;26.23;29.91
68107;BME280;54892;47.488;19.026;2023-05-02T08:09:17;100166.00;;;25.32;30.26
68107;BME280;54892;47.488;19.026;2023-05-02T08:12:20;100170.97;;;24.38;32.11
68107;BME280;54892;47.488;19.026;2023-05-02T08:15:23;100169.47;;;23.71;33.18
68107;BME280;54892;47.488;19.026;2023-05-02T08:18:26;100173.94;;;22.80;36.13
68107;BME280;54892;47.488;19.026;2023-05-02T08:21:30;100181.03;;;22.17;36.65
68107;BME280;54892;47.488;19.026;2023-05-02T08:24:34;100173.84;;;21.79;40.42
68107;BME280;54892;47.488;19.026;2023-05-02T08:27:37;100174.25;;;21.00;39.28
68107;BME280;54892;47.488;19.026;2023-05-02T08:30:40;100183.44;;;20.81;40.18
68107;BME280;54892;47.488;19.026;2023-05-02T08:33:45;100185.66;;;21.27;41.78
68107;BME280;54892;47.488;19.026;2023-05-02T08:36:48;100174.91;;;21.27;40.67
68107;BME280;54892;47.488;19.026;2023-05-02T08:39:52;100167.28;;;21.08;39.02
68107;BME280;54892;47.488;19.026;2023-05-02T08:42:56;100164.12;;;21.06;39.48
68107;BME280;54892;47.488;19.026;2023-05-02T08:45:59;100168.31;;;20.59;41.41
68107;BME280;54892;47.488;19.026;2023-05-02T08:49:03;100161.19;;;20.72;40.66
68107;BME280;54892;47.488;19.026;2023-05-02T08:52:07;100158.94;;;20.92;42.60
68107;BME280;54892;47.488;19.026;2023-05-02T08:55:13;100157.69;;;20.98;43.05
68107;BME280;54892;47.488;19.026;2023-05-02T08:58:16;100161.31;;;20.93;41.34
68107;BME280;54892;47.488;19.026;2023-05-02T09:01:21;100156.19;;;21.09;41.00
68107;BME280;54892;47.488;19.026;2023-05-02T09:04:25;100152.87;;;21.12;40.24
68107;BME280;54892;47.488;19.026;2023-05-02T09:07:30;100151.56;;;21.19;40.46
68107;BME280;54892;47.488;19.026;2023-05-02T09:10:44;100148.44;;;21.17;40.50
68107;BME280;54892;47.488;19.026;2023-05-02T09:13:47;100151.31;;;21.41;40.65
68107;BME280;54892;47.488;19.026;2023-05-02T09:16:51;100140.41;;;21.47;39.21
68107;BME280;54892;47.488;19.026;2023-05-02T09:20:00;100151.41;;;21.54;39.55
68107;BME280;54892;47.488;19.026;2023-05-02T09:23:04;100146.41;;;21.43;39.40
68107;BME280;54892;47.488;19.026;2023-05-02T09:26:16;100146.66;;;21.51;39.92
68107;BME280;54892;47.488;19.026;2023-05-02T09:29:20;100145.59;;;21.43;38.86
68107;BME280;54892;47.488;19.026;2023-05-02T09:32:23;100153.72;;;21.34;39.50
68107;BME280;54892;47.488;19.026;2023-05-02T09:35:52;100140.75;;;21.36;39.02
68107;BME280;54892;47.488;19.026;2023-05-02T09:38:55;100143.13;;;21.38;38.54
68107;BME280;54892;47.488;19.026;2023-05-02T09:42:11;100141.75;;;21.53;38.85
68107;BME280;54892;47.488;19.026;2023-05-02T09:45:20;100140.62;;;21.63;38.06
68107;BME280;54892;47.488;19.026;2023-05-02T09:48:24;100148.38;;;21.64;37.96
68107;BME280;54892;47.488;19.026;2023-05-02T09:51:27;100140.62;;;21.63;37.71
68107;BME280;54892;47.488;19.026;2023-05-02T09:54:33;100135.72;;;21.65;38.80
68107;BME280;54892;47.488;19.026;2023-05-02T09:57:40;100136.50;;;21.65;38.02
68107;BME280;54892;47.488;19.026;2023-05-02T10:00:43;100132.25;;;21.64;37.86
68107;BME280;54892;47.488;19.026;2023-05-02T10:03:47;100130.47;;;21.89;37.76
68107;BME280;54892;47.488;19.026;2023-05-02T10:06:51;100119.28;;;22.09;36.92
68107;BME280;54892;47.488;19.026;2023-05-02T10:09:54;100119.72;;;22.11;36.89
68107;BME280;54892;47.488;19.026;2023-05-02T10:13:02;100134.44;;;22.26;36.95
68107;BME280;54892;47.488;19.026;2023-05-02T10:16:05;100143.75;;;22.28;36.39
68107;BME280;54892;47.488;19.026;2023-05-02T10:19:09;100137.97;;;22.39;36.93
68107;BME280;54892;47.488;19.026;2023-05-02T10:22:13;100128.59;;;22.45;37.00
68107;BME280;54892;47.488;19.026;2023-05-02T10:25:17;100121.63;;;22.44;36.30
68107;BME280;54892;47.488;19.026;2023-05-02T10:28:22;100126.03;;;22.48;37.04
68107;BME280;54892;47.488;19.026;2023-05-02T10:31:25;100124.47;;;22.47;36.84
68107;BME280;54892;47.488;19.026;2023-05-02T10:34:30;100128.19;;;22.55;37.36
68107;BME280;54892;47.488;19.026;2023-05-02T10:37:33;100119.97;;;22.51;36.08
68107;BME280;54892;47.488;19.026;2023-05-02T10:40:38;100121.81;;;22.39;37.01
68107;BME280;54892;47.488;19.026;2023-05-02T10:43:46;100118.13;;;22.31;37.05
68107;BME280;54892;47.488;19.026;2023-05-02T10:46:49;100128.47;;;22.20;37.66
68107;BME280;54892;47.488;19.026;2023-05-02T10:49:53;100119.78;;;22.35;37.81
68107;BME280;54892;47.488;19.026;2023-05-02T10:52:57;100119.09;;;22.47;36.88
68107;BME280;54892;47.488;19.026;2023-05-02T10:56:07;100121.44;;;22.61;37.57
68107;BME280;54892;47.488;19.026;2023-05-02T10:59:27;100118.44;;;22.63;37.51
68107;BME280;54892;47.488;19.026;2023-05-02T11:02:46;100113.69;;;22.47;37.46
68107;BME280;54892;47.488;19.026;2023-05-02T11:06:05;100103.66;;;22.35;37.76
68107;BME280;54892;47.488;19.026;2023-05-02T11:12:41;100107.59;;;22.84;39.18
68107;BME280;54892;47.488;19.026;2023-05-02T11:15:55;100099.91;;;22.49;38.37
68107;BME280;54892;47.488;19.026;2023-05-02T11:18:59;100095.56;;;22.57;39.15
68107;BME280;54892;47.488;19.026;2023-05-02T11:25:29;100087.63;;;22.85;39.83
68107;BME280;54892;47.488;19.026;2023-05-02T11:28:40;100090.78;;;22.87;38.04
68107;BME280;54892;47.488;19.026;2023-05-02T11:35:06;100089.41;;;22.81;37.82
68107;BME280;54892;47.488;19.026;2023-05-02T11:38:10;100081.34;;;22.69;37.47
68107;BME280;54892;47.488;19.026;2023-05-02T11:41:14;100079.97;;;22.62;37.66
68107;BME280;54892;47.488;19.026;2023-05-02T11:44:17;100085.03;;;22.64;39.36
68107;BME280;54892;47.488;19.026;2023-05-02T11:47:20;100085.72;;;22.98;37.38
68107;BME280;54892;47.488;19.026;2023-05-02T11:50:25;100077.37;;;22.54;38.32
68107;BME280;54892;47.488;19.026;2023-05-02T11:53:30;100072.72;;;22.29;38.34
68107;BME280;54892;47.488;19.026;2023-05-02T11:56:33;100070.44;;;22.53;37.79
68107;BME280;54892;47.488;19.026;2023-05-02T11:59:47;100072.56;;;22.47;38.35
68107;BME280;54892;47.488;19.026;2023-05-02T12:02:51;100067.31;;;22.63;39.41
68107;BME280;54892;47.488;19.026;2023-05-02T12:05:55;100072.16;;;22.94;37.22
68107;BME280;54892;47.488;19.026;2023-05-02T12:09:05;100071.47;;;22.85;36.99
68107;BME280;54892;47.488;19.026;2023-05-02T12:12:08;100061.37;;;22.70;37.49
68107;BME280;54892;47.488;19.026;2023-05-02T12:15:11;100068.34;;;22.83;38.09
68107;BME280;54892;47.488;19.026;2023-05-02T12:18:14;100057.91;;;22.69;36.24
68107;BME280;54892;47.488;19.026;2023-05-02T12:21:19;100059.25;;;22.63;36.86
68107;BME280;54892;47.488;19.026;2023-05-02T12:24:22;100062.28;;;22.86;34.76
68107;BME280;54892;47.488;19.026;2023-05-02T12:27:25;100061.63;;;23.02;35.48
68107;BME280;54892;47.488;19.026;2023-05-02T12:30:29;100065.41;;;23.13;35.45
68107;BME280;54892;47.488;19.026;2023-05-02T12:33:40;100051.94;;;23.13;34.75
68107;BME280;54892;47.488;19.026;2023-05-02T12:36:44;100057.78;;;23.27;33.90
68107;BME280;54892;47.488;19.026;2023-05-02T12:39:47;100051.72;;;23.18;34.15
68107;BME280;54892;47.488;19.026;2023-05-02T12:42:57;100048.94;;;23.27;34.25
68107;BME280;54892;47.488;19.026;2023-05-02T12:46:09;100049.03;;;23.18;34.80
68107;BME280;54892;47.488;19.026;2023-05-02T12:49:12;100047.56;;;23.33;33.55
68107;BME280;54892;47.488;19.026;2023-05-02T12:52:18;100049.56;;;23.36;32.69
68107;BME280;54892;47.488;19.026;2023-05-02T12:55:21;100046.78;;;23.33;33.52
68107;BME280;54892;47.488;19.026;2023-05-02T12:58:25;100048.22;;;23.30;33.67
68107;BME280;54892;47.488;19.026;2023-05-02T13:01:29;100050.81;;;23.26;33.34
68107;BME280;54892;47.488;19.026;2023-05-02T13:04:32;100047.91;;;23.19;34.03
68107;BME280;54892;47.488;19.026;2023-05-02T13:07:37;100044.53;;;23.10;33.86
68107;BME280;54892;47.488;19.026;2023-05-02T13:10:40;100044.78;;;22.92;34.82
68107;BME280;54892;47.488;19.026;2023-05-02T13:13:43;100048.84;;;22.86;35.08
68107;BME280;54892;47.488;19.026;2023-05-02T13:16:47;100046.59;;;22.88;35.03
68107;BME280;54892;47.488;19.026;2023-05-02T13:19:53;100035.25;;;22.70;35.61
68107;BME280;54892;47.488;19.026;2023-05-02T13:23:02;100031.78;;;22.70;35.22
68107;BME280;54892;47.488;19.026;2023-05-02T13:26:05;100024.84;;;22.69;35.77
68107;BME280;54892;47.488;19.026;2023-05-02T13:29:08;100039.31;;;22.64;35.38
68107;BME280;54892;47.488;19.026;2023-05-02T13:32:13;100034.00;;;22.43;35.60
68107;BME280;54892;47.488;19.026;2023-05-02T13:35:16;100032.88;;;22.44;35.84
68107;BME280;54892;47.488;19.026;2023-05-02T13:38:20;100026.06;;;22.46;35.34
68107;BME280;54892;47.488;19.026;2023-05-02T13:41:23;100029.44;;;22.56;35.10
68107;BME280;54892;47.488;19.026;2023-05-02T13:44:26;100032.47;;;22.54;35.78
68107;BME280;54892;47.488;19.026;2023-05-02T13:47:29;100024.72;;;22.53;35.35
68107;BME280;54892;47.488;19.026;2023-05-02T13:50:32;100020.59;;;22.68;34.33
68107;BME280;54892;47.488;19.026;2023-05-02T13:53:39;100030.22;;;22.56;34.83
68107;BME280;54892;47.488;19.026;2023-05-02T13:56:42;100023.94;;;22.52;35.27
68107;BME280;54892;47.488;19.026;2023-05-02T13:59:45;100022.56;;;22.46;34.65
68107;BME280;54892;47.488;19.026;2023-05-02T14:02:48;100020.75;;;22.38;35.38
68107;BME280;54892;47.488;19.026;2023-05-02T14:05:51;100025.47;;;22.41;35.33
68107;BME280;54892;47.488;19.026;2023-05-02T14:08:56;100024.38;;;22.42;35.00
68107;BME280;54892;47.488;19.026;2023-05-02T14:11:59;100020.34;;;22.48;34.39
68107;BME280;54892;47.488;19.026;2023-05-02T14:15:03;100018.09;;;22.50;34.67
68107;BME280;54892;47.488;19.026;2023-05-02T14:18:06;100019.34;;;22.53;34.53
68107;BME280;54892;47.488;19.026;2023-05-02T14:21:09;100015.22;;;22.55;33.84
68107;BME280;54892;47.488;19.026;2023-05-02T14:24:14;100017.34;;;22.49;35.08
68107;BME280;54892;47.488;19.026;2023-05-02T14:27:19;100024.72;;;22.53;34.86
68107;BME280;54892;47.488;19.026;2023-05-02T14:30:22;100020.03;;;22.49;34.36
68107;BME280;54892;47.488;19.026;2023-05-02T14:33:25;100022.25;;;22.47;34.34
68107;BME280;54892;47.488;19.026;2023-05-02T14:36:28;100024.72;;;22.53;34.35
68107;BME280;54892;47.488;19.026;2023-05-02T14:39:33;100016.53;;;22.49;34.38
68107;BME280;54892;47.488;19.026;2023-05-02T14:42:37;100014.72;;;22.41;34.87
68107;BME280;54892;47.488;19.026;2023-05-02T14:45:40;100024.41;;;22.54;34.56
68107;BME280;54892;47.488;19.026;2023-05-02T14:48:43;100029.94;;;22.36;35.50
68107;BME280;54892;47.488;19.026;2023-05-02T14:51:46;100030.50;;;22.30;35.75
68107;BME280;54892;47.488;19.026;2023-05-02T14:54:51;100020.97;;;22.32;34.94
68107;BME280;54892;47.488;19.026;2023-05-02T14:57:54;100024.66;;;22.28;35.01
68107;BME280;54892;47.488;19.026;2023-05-02T15:00:58;100027.69;;;22.26;35.20
68107;BME280;54892;47.488;19.026;2023-05-02T15:04:02;100028.56;;;22.18;35.53
68107;BME280;54892;47.488;19.026;2023-05-02T15:07:07;100023.75;;;22.24;35.03
68107;BME280;54892;47.488;19.026;2023-05-02T15:10:11;100025.88;;;22.30;33.92
68107;BME280;54892;47.488;19.026;2023-05-02T15:13:14;100031.72;;;22.20;34.36
68107;BME280;54892;47.488;19.026;2023-05-02T15:16:17;100038.50;;;22.05;35.08
68107;BME280;54892;47.488;19.026;2023-05-02T15:19:21;100032.69;;;22.03;35.78
68107;BME280;54892;47.488;19.026;2023-05-02T15:22:25;100030.41;;;21.93;36.61
68107;BME280;54892;47.488;19.026;2023-05-02T15:25:30;100030.09;;;21.94;36.29
68107;BME280;54892;47.488;19.026;2023-05-02T15:28:33;100026.38;;;21.86;36.74
68107;BME280;54892;47.488;19.026;2023-05-02T15:31:37;100017.97;;;21.88;36.33
68107;BME280;54892;47.488;19.026;2023-05-02T15:34:40;100019.34;;;21.94;35.31
68107;BME280;54892;47.488;19.026;2023-05-02T15:37:44;100026.03;;;21.88;35.57
68107;BME280;54892;47.488;19.026;2023-05-02T15:40:55;100025.47;;;21.95;35.09
68107;BME280;54892;47.488;19.026;2023-05-02T15:43:58;100026.38;;;21.86;35.94
68107;BME280;54892;47.488;19.026;2023-05-02T15:47:02;100022.75;;;21.82;35.73
68107;BME280;54892;47.488;19.026;2023-05-02T15:50:06;100014.88;;;21.77;35.52
68107;BME280;54892;47.488;19.026;2023-05-02T15:53:11;100020.66;;;21.88;35.69
68107;BME280;54892;47.488;19.026;2023-05-02T15:56:15;100010.56;;;21.85;35.55
68107;BME280;54892;47.488;19.026;2023-05-02T15:59:18;100007.66;;;21.90;35.39
68107;BME280;54892;47.488;19.026;2023-05-02T16:02:21;100017.69;;;21.81;36.02